OISF  Fasa Airport

Add Bookmark

Fasa, Iran

Status IATA
Operational FAZ
Latitude Longitude
28° 53' 30" N 53° 43' 23" E
28.891800 53.723301
Local (DST + 5) UTC (GMT + 4)
Jul 23, 2014 08:23 Jul 23, 2014 03:53
Sunrise-Sunset Local UTC
Begin Civil Twilight 05:43 01:13
Sunrise 06:09 01:39
Sunset 07:53 15:23
End Civil Twilight 08:19 15:49

Current Weather

METAR Observed VFR
OISF 230250Z 31004KT CAVOK 23/M02 Q1005 Wed, Jul 23, 2014 @ 02:50 UTC
(1 Hour, 3 Minutes ago)
Visual Flight Rules

Decoded METAR

Wind Visibility Clouds Conditions
310° at 4 knots (7 kph) 10 km or more
  • Clear skies
  • No significant weather
Temperatures Readings Precipitation
Current Temp 23°C (73°F)
Dewpoint -2°C (28°F)
Humidity 19%
Altimeter 29.68"Hg
Sea Level Pressure 1005mb
Field Elevation 4537.4'
None Recorded

Additional weather within a 185.2km radius of OISF

Map ICAO Location METAR
OISS 131.3km W (303°) 23 mins ago
OISL 149.8km S (154°) 53 mins ago
OISR 176.7km S (197°) 53 mins ago
OIBJ 179.3km S (229°) 53 mins ago

24 Hour Weather History

Loading
-

24 Hour Weather Graphs

Loading
-

CheckWX.com is intended as a tool to help pilots better visualize weather data. It is not intended as a substitute for an official weather briefing obtained from a Flight Service Station. CheckWX.com does not meet the FAA requirements for an official pre-flight weather briefing. Therefore, it's important that pilots still call and obtain an official FSS pre-flight weather briefing.